Time;durP1;ratioP1;P1;durP2;ratioP2;P2;SDS_P1;SDS_P2;PMS_P1;PMS_P2;Temp;Humidity;BMP_temperature;BMP_pressure;BME280_temperature;BME280_humidity;BME280_pressure;Samples;Min_cycle;Max_cycle;Signal;HPM_P1;HPM_P2
2021/09/05 00:00:22;;;;;;;16.65;9.45;;;11.50;99.90;;;;;;5058802;28;20024;-48
2021/09/05 00:02:47;;;;;;;20.35;9.65;;;11.50;99.90;;;;;;5064006;28;20106;-45
2021/09/05 00:05:13;;;;;;;16.33;9.27;;;11.40;99.90;;;;;;5072350;28;20078;-45
2021/09/05 00:07:38;;;;;;;12.50;8.52;;;11.40;99.90;;;;;;5058696;28;20021;-47
2021/09/05 00:10:04;;;;;;;13.52;8.95;;;11.40;99.90;;;;;;5063714;28;20044;-47
2021/09/05 00:12:30;;;;;;;15.35;8.68;;;11.40;99.90;;;;;;5071823;28;20563;-44
2021/09/05 00:14:55;;;;;;;13.32;8.40;;;11.40;99.90;;;;;;5066401;28;20037;-44
2021/09/05 00:17:21;;;;;;;15.48;9.38;;;11.40;99.90;;;;;;5062663;28;20059;-45
2021/09/05 00:19:46;;;;;;;18.15;9.73;;;11.40;99.90;;;;;;5071659;28;20028;-46
2021/09/05 00:22:12;;;;;;;13.73;8.98;;;11.40;99.90;;;;;;5071917;28;20032;-45
2021/09/05 00:24:37;;;;;;;18.27;9.93;;;11.40;99.90;;;;;;5071732;28;20021;-46
2021/09/05 00:27:04;;;;;;;16.83;9.48;;;11.30;99.90;;;;;;5069671;28;20452;-45
2021/09/05 00:29:29;;;;;;;17.33;10.18;;;11.30;99.90;;;;;;5071304;28;20095;-45
2021/09/05 00:31:55;;;;;;;18.92;10.02;;;11.30;99.90;;;;;;5059376;28;20128;-45
2021/09/05 00:34:21;;;;;;;15.98;8.85;;;11.30;99.90;;;;;;5071976;28;20040;-45
2021/09/05 00:36:46;;;;;;;15.68;9.93;;;11.30;99.90;;;;;;5058076;28;20051;-45
2021/09/05 00:39:12;;;;;;;15.13;9.73;;;11.30;99.90;;;;;;5063806;28;20032;-46
2021/09/05 00:41:37;;;;;;;14.52;9.20;;;11.20;99.90;;;;;;5056169;28;20026;-45
2021/09/05 00:44:08;;;;;;;16.92;9.52;;;11.20;99.90;;;;;;5061557;28;20111;-46
2021/09/05 00:46:35;;;;;;;15.10;9.00;;;11.10;99.90;;;;;;5063283;28;20025;-46
2021/09/05 00:49:02;;;;;;;16.63;9.18;;;11.00;99.90;;;;;;5059530;28;20371;-45
2021/09/05 00:51:35;;;;;;;16.05;9.07;;;10.90;99.90;;;;;;5069795;28;20025;-47
2021/09/05 00:54:03;;;;;;;18.02;9.55;;;10.90;99.90;;;;;;5071252;28;20032;-45
2021/09/05 00:56:34;;;;;;;18.70;10.23;;;10.80;99.90;;;;;;5070514;28;20139;-46
2021/09/05 00:59:02;;;;;;;;;;;10.80;99.90;;;;;;5071439;28;20202;-45
2021/09/05 01:01:29;;;;;;;17.23;9.52;;;10.80;99.90;;;;;;5061342;28;19915;-45
2021/09/05 01:03:55;;;;;;;17.75;9.60;;;10.80;99.90;;;;;;5065100;28;20103;-46
2021/09/05 01:06:21;;;;;;;16.92;9.25;;;10.90;99.90;;;;;;5052191;28;20104;-45
2021/09/05 01:08:48;;;;;;;17.60;8.57;;;10.80;99.90;;;;;;5067998;28;20217;-45
2021/09/05 01:11:14;;;;;;;14.20;9.55;;;10.80;99.90;;;;;;5071003;28;20055;-45
2021/09/05 01:13:41;;;;;;;14.48;8.98;;;10.80;99.90;;;;;;5070903;28;20178;-45
2021/09/05 01:16:21;;;;;;;20.88;10.60;;;10.80;99.90;;;;;;5071200;28;20029;-45
2021/09/05 01:18:47;;;;;;;15.77;9.85;;;10.80;99.90;;;;;;5071407;28;20029;-45
2021/09/05 01:21:12;;;;;;;14.73;9.73;;;10.80;99.90;;;;;;5070349;28;20036;-45
2021/09/05 01:23:38;;;;;;;13.52;8.45;;;10.80;99.90;;;;;;5070851;28;20028;-45
2021/09/05 01:26:05;;;;;;;15.90;8.35;;;10.70;99.90;;;;;;5070525;28;20379;-46
2021/09/05 01:28:30;;;;;;;17.20;9.30;;;10.70;99.90;;;;;;5058642;28;20168;-45
2021/09/05 01:30:56;;;;;;;14.98;9.00;;;10.70;99.90;;;;;;5058806;28;20025;-45
2021/09/05 01:33:21;;;;;;;16.02;8.93;;;10.70;99.90;;;;;;5070586;28;20283;-44
2021/09/05 01:35:47;;;;;;;15.30;8.55;;;10.70;99.90;;;;;;5070325;28;20523;-45
2021/09/05 01:38:12;;;;;;;17.20;9.45;;;10.70;99.90;;;;;;5068598;28;20060;-45
2021/09/05 01:40:38;;;;;;;14.43;9.23;;;10.60;99.90;;;;;;5070340;28;20529;-45
2021/09/05 01:43:03;;;;;;;16.63;9.35;;;10.60;99.90;;;;;;5070276;28;20047;-45
2021/09/05 01:45:29;;;;;;;16.27;9.10;;;10.60;99.90;;;;;;5056554;28;20431;-45
2021/09/05 01:47:55;;;;;;;15.25;8.68;;;10.60;99.90;;;;;;5067742;28;20042;-46
2021/09/05 01:50:20;;;;;;;14.48;8.75;;;10.60;99.90;;;;;;5070204;28;20128;-46
2021/09/05 01:52:46;;;;;;;13.90;8.60;;;10.60;99.90;;;;;;5070187;28;20032;-45
2021/09/05 01:55:11;;;;;;;12.60;8.85;;;10.50;99.90;;;;;;5070234;28;20251;-45
2021/09/05 01:57:37;;;;;;;12.10;8.50;;;10.50;99.90;;;;;;5068351;28;20184;-46
2021/09/05 02:00:03;;;;;;;13.07;8.48;;;10.50;99.90;;;;;;5056036;28;20029;-45
2021/09/05 02:02:29;;;;;;;16.73;9.15;;;10.50;99.90;;;;;;5064913;28;20417;-46
2021/09/05 02:04:54;;;;;;;18.40;9.45;;;10.40;99.90;;;;;;5059900;28;20025;-46
2021/09/05 02:07:20;;;;;;;15.18;10.05;;;10.40;99.90;;;;;;5060980;28;20021;-45
2021/09/05 02:09:45;;;;;;;11.85;8.88;;;10.40;99.90;;;;;;5069812;28;20024;-45
2021/09/05 02:12:10;;;;;;;15.07;7.88;;;10.40;99.90;;;;;;5069760;28;20032;-46
2021/09/05 02:14:36;;;;;;;14.35;8.63;;;10.30;99.90;;;;;;5069329;28;20497;-45
2021/09/05 02:17:01;;;;;;;12.88;8.52;;;10.30;99.90;;;;;;5069094;28;20095;-45
2021/09/05 02:19:28;;;;;;;13.63;9.05;;;10.30;99.90;;;;;;5069441;28;20029;-45
2021/09/05 02:21:54;;;;;;;18.38;9.25;;;10.30;99.90;;;;;;5059406;28;20024;-46
2021/09/05 02:24:19;;;;;;;13.85;8.88;;;10.30;99.90;;;;;;5069641;28;20024;-46
2021/09/05 02:26:45;;;;;;;13.25;9.13;;;10.30;99.90;;;;;;5061572;28;20108;-45
2021/09/05 02:29:10;;;;;;;14.90;9.77;;;10.30;99.90;;;;;;5065576;28;20025;-45
2021/09/05 02:31:35;;;;;;;18.42;10.10;;;10.30;99.90;;;;;;5049533;28;20178;-46
2021/09/05 02:34:01;;;;;;;17.05;9.20;;;10.30;99.90;;;;;;5047023;28;20227;-46
2021/09/05 02:36:27;;;;;;;15.02;9.20;;;10.30;99.90;;;;;;5051242;28;20021;-47
2021/09/05 02:38:52;;;;;;;14.25;8.85;;;10.30;99.90;;;;;;5067425;28;20119;-45
2021/09/05 02:41:17;;;;;;;16.23;8.57;;;10.30;99.90;;;;;;5069435;28;20081;-45
2021/09/05 02:43:43;;;;;;;16.30;10.02;;;10.30;99.90;;;;;;5056138;28;20009;-45
2021/09/05 02:46:09;;;;;;;14.32;8.35;;;10.20;99.90;;;;;;5068076;28;20028;-46
2021/09/05 02:48:34;;;;;;;12.02;8.20;;;10.20;99.90;;;;;;5069449;28;20024;-46
2021/09/05 02:50:59;;;;;;;14.65;8.68;;;10.20;99.90;;;;;;5067938;28;20390;-46
2021/09/05 02:53:25;;;;;;;15.65;9.35;;;10.10;99.90;;;;;;5069518;28;20083;-45
2021/09/05 02:55:50;;;;;;;14.15;8.90;;;10.10;99.90;;;;;;5067556;28;20031;-45
2021/09/05 02:58:16;;;;;;;17.77;9.02;;;10.10;99.90;;;;;;5068331;28;20112;-45
2021/09/05 03:00:41;;;;;;;14.73;9.35;;;10.10;99.90;;;;;;5068850;28;20032;-45
2021/09/05 03:03:07;;;;;;;11.55;8.05;;;10.10;99.90;;;;;;5068753;28;20028;-46
2021/09/05 03:05:33;;;;;;;15.18;8.95;;;10.20;99.90;;;;;;5059120;28;20499;-47
2021/09/05 03:07:59;;;;;;;13.20;8.20;;;10.30;99.90;;;;;;5066693;28;20098;-46
2021/09/05 03:10:24;;;;;;;14.88;8.85;;;10.40;99.90;;;;;;5069023;28;20032;-45
2021/09/05 03:12:50;;;;;;;17.02;9.63;;;10.40;99.90;;;;;;5068619;28;20310;-46
2021/09/05 03:15:15;;;;;;;17.50;9.13;;;10.50;99.90;;;;;;5053343;28;20025;-45
2021/09/05 03:17:41;;;;;;;13.35;8.75;;;10.60;99.90;;;;;;5059646;28;20037;-46
2021/09/05 03:20:07;;;;;;;15.60;9.20;;;10.60;99.90;;;;;;5067357;28;20537;-45
2021/09/05 03:22:33;;;;;;;14.95;9.57;;;10.70;99.90;;;;;;5068819;28;20154;-45
2021/09/05 03:24:58;;;;;;;12.95;8.82;;;10.70;99.90;;;;;;5066892;28;20119;-47
2021/09/05 03:27:24;;;;;;;15.13;9.80;;;10.80;99.90;;;;;;5063725;28;20033;-46
2021/09/05 03:29:49;;;;;;;18.98;8.75;;;10.90;99.90;;;;;;5051177;28;20029;-46
2021/09/05 03:32:15;;;;;;;12.63;8.55;;;10.90;99.90;;;;;;5043748;28;20039;-45
2021/09/05 03:34:40;;;;;;;18.02;9.98;;;11.00;99.90;;;;;;5038298;28;20215;-45
2021/09/05 03:37:06;;;;;;;15.60;9.48;;;11.00;99.90;;;;;;5036326;28;20080;-45
2021/09/05 03:39:31;;;;;;;19.38;10.60;;;11.00;99.90;;;;;;5038845;28;20104;-46
2021/09/05 03:41:57;;;;;;;28.75;12.00;;;11.10;99.90;;;;;;5038004;28;20021;-47
2021/09/05 03:44:22;;;;;;;25.20;12.20;;;11.10;99.90;;;;;;5035714;28;20021;-46
2021/09/05 03:49:51;;;;;;;34.80;13.27;;;11.10;99.90;;;;;;5030569;28;20044;-45
2021/09/05 03:52:17;;;;;;;40.97;14.90;;;11.20;99.90;;;;;;5039645;28;20021;-46
2021/09/05 03:54:42;;;;;;;35.88;14.82;;;11.20;99.90;;;;;;5036514;28;20018;-46
2021/09/05 03:57:08;;;;;;;33.75;15.23;;;11.20;99.90;;;;;;5044928;28;20111;-46
2021/09/05 03:59:33;;;;;;;41.85;16.48;;;11.20;99.90;;;;;;5052312;28;20043;-46
2021/09/05 04:01:59;;;;;;;41.97;16.83;;;11.20;99.90;;;;;;5037288;28;20034;-46
2021/09/05 04:04:24;;;;;;;36.20;16.27;;;11.30;99.90;;;;;;5059811;28;20086;-46
2021/09/05 04:07:00;;;;;;;43.80;16.52;;;11.30;99.90;;;;;;5067501;28;20032;-46
2021/09/05 04:12:10;;;;;;;56.47;18.33;;;11.30;99.90;;;;;;5028464;28;20121;-46
2021/09/05 04:14:36;;;;;;;50.05;19.02;;;11.30;99.90;;;;;;5042056;28;20115;-47
2021/09/05 04:17:02;;;;;;;37.75;16.98;;;11.30;99.90;;;;;;5059260;28;20025;-49
2021/09/05 04:19:27;;;;;;;44.28;17.35;;;11.30;99.90;;;;;;5068275;28;20112;-46
2021/09/05 04:21:53;;;;;;;39.78;16.15;;;11.30;99.90;;;;;;5067998;28;20500;-46
2021/09/05 04:24:18;;;;;;;47.38;17.90;;;11.30;99.90;;;;;;5066755;28;20360;-46
2021/09/05 04:26:45;;;;;;;46.42;18.13;;;11.40;99.90;;;;;;5067755;28;20143;-45
2021/09/05 04:29:11;;;;;;;45.33;20.25;;;11.40;99.90;;;;;;5069201;28;20045;-45
2021/09/05 04:31:36;;;;;;;46.95;18.60;;;11.40;99.90;;;;;;5069539;28;20063;-45
2021/09/05 04:34:02;;;;;;;37.20;17.13;;;11.40;99.90;;;;;;5069447;28;20021;-45
2021/09/05 04:36:27;;;;;;;37.40;16.55;;;11.40;99.90;;;;;;5069937;28;20112;-47
2021/09/05 04:38:53;;;;;;;40.50;17.38;;;11.50;99.90;;;;;;5071607;28;20020;-45
2021/09/05 04:41:18;;;;;;;45.22;17.98;;;11.50;99.90;;;;;;5057757;28;20028;-46
2021/09/05 04:43:44;;;;;;;32.70;17.23;;;11.50;99.90;;;;;;5064430;28;20025;-46
2021/09/05 04:46:09;;;;;;;41.83;18.73;;;11.50;99.90;;;;;;5072783;28;20028;-46
2021/09/05 04:48:34;;;;;;;35.42;16.33;;;11.60;99.90;;;;;;5072430;28;20033;-46
2021/09/05 04:51:00;;;;;;;34.30;16.83;;;11.60;99.90;;;;;;5072668;28;20050;-47
2021/09/05 04:53:25;;;;;;;32.58;16.35;;;11.60;99.90;;;;;;5072836;28;20029;-45
2021/09/05 04:55:51;;;;;;;36.70;17.15;;;11.60;99.90;;;;;;5072403;28;20175;-46
2021/09/05 04:58:16;;;;;;;35.38;16.80;;;11.70;99.90;;;;;;5068424;28;20040;-46
2021/09/05 05:00:42;;;;;;;36.63;16.70;;;11.70;99.90;;;;;;5052504;28;20036;-48
2021/09/05 05:03:07;;;;;;;35.53;16.92;;;11.70;99.90;;;;;;5044651;28;20116;-46
2021/09/05 05:05:33;;;;;;;37.50;18.63;;;11.80;99.90;;;;;;5048432;28;20028;-47
2021/09/05 05:07:58;;;;;;;35.20;17.17;;;11.80;99.90;;;;;;5048123;28;20025;-47
2021/09/05 05:10:24;;;;;;;36.47;18.63;;;11.80;99.90;;;;;;5041436;28;20316;-49
2021/09/05 05:12:50;;;;;;;30.48;15.27;;;11.90;99.90;;;;;;5038857;28;20109;-46
2021/09/05 05:15:15;;;;;;;34.92;18.15;;;11.90;99.90;;;;;;5052252;28;20032;-48
2021/09/05 05:17:40;;;;;;;29.27;15.50;;;11.90;99.90;;;;;;5067070;28;20036;-47
2021/09/05 05:20:06;;;;;;;33.85;17.25;;;12.00;99.90;;;;;;5071224;28;20020;-47
2021/09/05 05:22:32;;;;;;;30.63;16.83;;;12.00;99.90;;;;;;5072178;28;20024;-49
2021/09/05 05:24:57;;;;;;;27.95;16.13;;;12.00;99.90;;;;;;5071975;28;20021;-49
2021/09/05 05:27:23;;;;;;;25.52;15.23;;;12.10;99.90;;;;;;5070136;28;20133;-47
2021/09/05 05:29:48;;;;;;;28.13;16.10;;;12.10;99.90;;;;;;5057042;28;20036;-46
2021/09/05 05:32:14;;;;;;;30.42;15.55;;;12.20;99.90;;;;;;5059381;28;20183;-45
2021/09/05 05:34:40;;;;;;;24.02;13.82;;;12.20;99.90;;;;;;5042523;28;20532;-48
2021/09/05 05:37:05;;;;;;;28.70;15.00;;;12.20;99.90;;;;;;5030082;28;20029;-46
2021/09/05 05:39:31;;;;;;;30.67;16.70;;;12.20;99.90;;;;;;5051739;28;20056;-48
2021/09/05 05:41:57;;;;;;;33.55;16.98;;;12.20;99.90;;;;;;5046268;28;20029;-47
2021/09/05 05:44:22;;;;;;;35.17;18.50;;;12.30;99.90;;;;;;5063408;28;20020;-48
2021/09/05 05:46:48;;;;;;;36.75;18.90;;;12.30;99.90;;;;;;5071343;28;20235;-46
2021/09/05 05:49:13;;;;;;;30.42;17.45;;;12.30;99.90;;;;;;5070818;28;20024;-46
2021/09/05 05:51:39;;;;;;;31.38;17.55;;;12.30;99.90;;;;;;5071828;28;20068;-46
2021/09/05 05:54:04;;;;;;;33.38;18.10;;;12.30;99.90;;;;;;5071321;28;20029;-46
2021/09/05 05:56:30;;;;;;;28.30;16.80;;;12.30;99.90;;;;;;5070961;28;20028;-49
2021/09/05 05:58:56;;;;;;;32.15;16.92;;;12.30;99.90;;;;;;5059299;28;20090;-47
2021/09/05 06:01:23;;;;;;;33.58;18.42;;;12.40;99.90;;;;;;5056883;28;20036;-46
2021/09/05 06:03:48;;;;;;;29.35;16.65;;;12.40;99.90;;;;;;5052999;28;20052;-48
2021/09/05 06:06:14;;;;;;;35.38;18.85;;;12.40;99.90;;;;;;5050936;28;20057;-47
2021/09/05 06:08:40;;;;;;;30.25;17.00;;;12.50;99.90;;;;;;5050835;28;20439;-47
2021/09/05 06:11:05;;;;;;;28.88;16.05;;;12.50;99.90;;;;;;5050900;28;20429;-48
2021/09/05 06:13:31;;;;;;;29.98;16.42;;;12.50;99.90;;;;;;5042973;28;20041;-47
2021/09/05 06:15:56;;;;;;;28.95;14.57;;;12.60;99.90;;;;;;5049348;28;20036;-47
2021/09/05 06:18:22;;;;;;;24.58;14.07;;;12.60;99.90;;;;;;5035943;28;20429;-53
2021/09/05 06:20:47;;;;;;;26.63;14.60;;;12.60;99.90;;;;;;5044303;28;20103;-47
2021/09/05 06:23:13;;;;;;;24.60;14.65;;;12.70;99.90;;;;;;5051266;28;20398;-49
2021/09/05 06:25:38;;;;;;;24.98;13.82;;;12.70;99.90;;;;;;5050990;28;20021;-49
2021/09/05 06:28:04;;;;;;;16.90;11.15;;;12.80;99.90;;;;;;5050094;28;20447;-47
2021/09/05 06:30:30;;;;;;;17.40;11.52;;;12.80;99.90;;;;;;5053611;28;20029;-47
2021/09/05 06:32:55;;;;;;;22.70;12.48;;;12.80;99.90;;;;;;5054524;28;20086;-47
2021/09/05 06:35:22;;;;;;;18.88;11.38;;;12.80;99.90;;;;;;5060415;28;20027;-46
2021/09/05 06:37:48;;;;;;;18.00;11.32;;;12.90;99.90;;;;;;5060911;28;20136;-47
2021/09/05 06:40:14;;;;;;;18.77;11.82;;;12.90;99.90;;;;;;5069780;28;20445;-47
2021/09/05 06:42:39;;;;;;;20.88;12.75;;;12.90;99.90;;;;;;5070028;28;20043;-47
2021/09/05 06:45:05;;;;;;;19.05;12.55;;;12.90;99.90;;;;;;5069863;28;20019;-47
2021/09/05 06:47:30;;;;;;;19.70;11.77;;;12.90;99.90;;;;;;5064507;28;20030;-47
2021/09/05 06:49:56;;;;;;;15.90;11.32;;;13.00;99.90;;;;;;5057198;28;20411;-47
2021/09/05 06:52:21;;;;;;;16.20;11.55;;;13.00;99.90;;;;;;5069991;28;20504;-50
2021/09/05 06:54:47;;;;;;;16.30;10.48;;;13.00;99.90;;;;;;5069925;28;20099;-49
2021/09/05 06:57:12;;;;;;;17.85;11.73;;;12.90;99.90;;;;;;5068506;28;20032;-46
2021/09/05 06:59:38;;;;;;;15.10;10.38;;;13.00;99.90;;;;;;5055450;28;20131;-47
2021/09/05 07:02:03;;;;;;;17.00;10.00;;;13.00;99.90;;;;;;5059972;28;20028;-47
2021/09/05 07:04:29;;;;;;;17.35;11.35;;;13.00;99.90;;;;;;5065253;28;20494;-47
2021/09/05 07:06:54;;;;;;;17.00;10.52;;;13.00;99.90;;;;;;5055851;28;20016;-47
2021/09/05 07:09:20;;;;;;;16.55;11.02;;;13.00;99.90;;;;;;5068086;28;20024;-48
2021/09/05 07:11:45;;;;;;;14.32;10.00;;;13.00;99.90;;;;;;5068189;28;20017;-47
2021/09/05 07:14:11;;;;;;;17.42;11.02;;;13.00;99.90;;;;;;5060778;28;20112;-47
2021/09/05 07:16:37;;;;;;;18.15;10.48;;;13.00;99.90;;;;;;5048065;28;20524;-49
2021/09/05 07:19:03;;;;;;;17.38;10.48;;;13.10;99.90;;;;;;5068536;28;20024;-47
2021/09/05 07:21:28;;;;;;;19.35;11.13;;;13.10;99.90;;;;;;5053333;28;20041;-46
2021/09/05 07:23:54;;;;;;;16.30;10.68;;;13.20;99.90;;;;;;5065993;28;20407;-47
2021/09/05 07:26:19;;;;;;;17.02;11.55;;;13.20;99.90;;;;;;5066166;28;20111;-47
2021/09/05 07:28:45;;;;;;;18.00;11.30;;;13.20;99.90;;;;;;5044850;28;20029;-47
2021/09/05 07:31:10;;;;;;;16.45;10.98;;;13.20;99.90;;;;;;5046569;28;20116;-48
2021/09/05 07:33:36;;;;;;;19.05;11.40;;;13.30;99.90;;;;;;5035252;28;20029;-47
2021/09/05 07:36:02;;;;;;;15.98;10.88;;;13.20;99.90;;;;;;5046245;28;20032;-47
2021/09/05 07:38:27;;;;;;;21.00;11.52;;;13.20;99.90;;;;;;5060262;28;20035;-48
2021/09/05 07:40:53;;;;;;;16.42;10.50;;;13.30;99.90;;;;;;5067943;28;20028;-48
2021/09/05 07:43:19;;;;;;;15.98;10.60;;;13.30;99.90;;;;;;5067879;28;20425;-46
2021/09/05 07:45:44;;;;;;;15.50;10.02;;;13.40;99.90;;;;;;5055322;28;20475;-46
2021/09/05 07:48:10;;;;;;;17.00;11.30;;;13.40;99.90;;;;;;5059242;28;20119;-46
2021/09/05 07:50:35;;;;;;;17.73;10.77;;;13.40;99.90;;;;;;5059555;28;20028;-46
2021/09/05 07:53:01;;;;;;;16.25;10.52;;;13.40;99.90;;;;;;5059491;28;20025;-49
2021/09/05 07:55:26;;;;;;;14.60;10.73;;;13.40;99.90;;;;;;5067861;28;20032;-48
2021/09/05 07:57:52;;;;;;;15.93;11.38;;;13.40;99.90;;;;;;5048412;28;20037;-46
2021/09/05 08:00:17;;;;;;;18.77;11.95;;;13.40;99.90;;;;;;5037894;28;20025;-47
2021/09/05 08:02:43;;;;;;;17.48;11.32;;;13.40;99.90;;;;;;5036656;28;20021;-47
2021/09/05 08:05:09;;;;;;;21.58;11.60;;;13.40;99.90;;;;;;5036262;28;20029;-46
2021/09/05 08:07:35;;;;;;;19.10;11.48;;;13.50;99.90;;;;;;5025297;28;20109;-49
2021/09/05 08:10:01;;;;;;;19.50;11.95;;;13.50;99.90;;;;;;5026230;28;20117;-46
2021/09/05 08:12:27;;;;;;;16.83;10.88;;;13.50;99.90;;;;;;5042361;28;20029;-46
2021/09/05 08:14:52;;;;;;;17.50;10.70;;;13.50;99.90;;;;;;5045341;28;20048;-49
2021/09/05 08:17:18;;;;;;;19.85;12.45;;;13.50;99.90;;;;;;5064646;28;20394;-46
2021/09/05 08:19:43;;;;;;;17.15;11.25;;;13.60;99.90;;;;;;5046996;28;20040;-47
2021/09/05 08:22:09;;;;;;;15.77;10.02;;;13.60;99.90;;;;;;5044284;28;20033;-50
2021/09/05 08:24:34;;;;;;;16.25;11.23;;;13.70;99.90;;;;;;5042279;28;20100;-47
2021/09/05 08:26:59;;;;;;;17.67;11.18;;;13.70;99.90;;;;;;5043894;28;20018;-47
2021/09/05 08:29:25;;;;;;;19.30;11.60;;;13.70;99.90;;;;;;5050843;28;20493;-48
2021/09/05 08:31:50;;;;;;;16.73;10.32;;;13.80;99.90;;;;;;5063193;28;20459;-47
2021/09/05 08:34:16;;;;;;;18.85;10.43;;;13.90;99.90;;;;;;5043824;28;20503;-47
2021/09/05 08:36:41;;;;;;;12.85;9.50;;;14.00;99.90;;;;;;5054267;28;20017;-48
2021/09/05 08:39:07;;;;;;;13.80;8.90;;;14.00;99.90;;;;;;5069401;28;20034;-47
2021/09/05 08:41:33;;;;;;;12.35;9.05;;;14.10;99.90;;;;;;5070817;28;20034;-46
2021/09/05 08:43:59;;;;;;;13.88;9.82;;;14.20;99.90;;;;;;5065333;28;20032;-46
2021/09/05 08:46:25;;;;;;;15.75;9.45;;;14.20;99.90;;;;;;5052505;28;20021;-46
2021/09/05 08:48:50;;;;;;;13.07;8.65;;;14.20;99.90;;;;;;5069362;28;20032;-50
2021/09/05 08:51:17;;;;;;;14.73;10.70;;;14.30;99.90;;;;;;5070409;28;20029;-46
2021/09/05 08:53:44;;;;;;;15.27;9.90;;;14.10;99.90;;;;;;5068756;28;20119;-46
2021/09/05 08:56:09;;;;;;;15.13;10.05;;;14.10;99.90;;;;;;5053915;28;20033;-47
2021/09/05 08:58:35;;;;;;;10.88;8.27;;;14.20;99.90;;;;;;5065107;28;20025;-45
2021/09/05 09:01:16;;;;;;;17.85;11.30;;;14.20;99.90;;;;;;5070486;28;20032;-46
2021/09/05 09:03:41;;;;;;;15.20;10.30;;;14.30;99.90;;;;;;5069048;28;20071;-46
2021/09/05 09:06:07;;;;;;;13.50;9.93;;;14.40;99.90;;;;;;5059091;28;20045;-46
2021/09/05 09:08:32;;;;;;;14.25;9.35;;;14.50;99.90;;;;;;5065061;28;20029;-46
2021/09/05 09:11:01;;;;;;;14.45;9.38;;;14.50;99.90;;;;;;5070736;28;20493;-47
2021/09/05 09:13:38;;;;;;;13.68;9.93;;;14.60;99.90;;;;;;5070405;28;20040;-46
2021/09/05 09:16:07;;;;;;;14.57;10.27;;;14.60;99.90;;;;;;5052425;28;20032;-45
2021/09/05 09:18:33;;;;;;;16.42;10.82;;;14.70;99.90;;;;;;5055065;28;20029;-46
2021/09/05 09:21:00;;;;;;;16.27;10.93;;;14.80;99.90;;;;;;5049234;28;20024;-48
2021/09/05 09:23:29;;;;;;;15.85;10.93;;;14.80;99.90;;;;;;5063823;28;20029;-47
2021/09/05 09:26:14;;;;;;;16.92;11.77;;;14.80;99.90;;;;;;5071447;28;20047;-46
2021/09/05 09:28:45;;;;;;;13.77;10.10;;;14.90;99.90;;;;;;5053146;28;20027;-46
2021/09/05 09:31:21;;;;;;;15.63;10.85;;;14.70;99.90;;;;;;5030212;28;20037;-46
2021/09/05 09:33:49;;;;;;;15.38;11.55;;;14.70;99.90;;;;;;5042945;28;20415;-46
2021/09/05 09:36:18;;;;;;;15.48;11.40;;;14.60;99.90;;;;;;5063796;28;20045;-47
2021/09/05 09:39:00;;;;;;;20.10;13.88;;;14.70;99.90;;;;;;5070366;28;20074;-46
2021/09/05 09:41:31;;;;;;;14.18;9.77;;;14.50;99.90;;;;;;5070114;28;20033;-47
2021/09/05 09:43:58;;;;;;;19.30;12.75;;;14.50;99.90;;;;;;5056149;28;20057;-46
2021/09/05 09:46:29;;;;;;;19.40;13.05;;;14.50;99.90;;;;;;5059834;28;20082;-46
2021/09/05 09:48:57;;;;;;;18.50;11.57;;;14.50;99.90;;;;;;5070263;28;20040;-47
2021/09/05 09:51:24;;;;;;;15.23;11.20;;;14.60;99.90;;;;;;5070010;28;20024;-46
2021/09/05 09:53:51;;;;;;;19.80;11.40;;;14.60;99.90;;;;;;5057138;28;20668;-46
2021/09/05 09:56:17;;;;;;;17.27;11.90;;;14.70;99.90;;;;;;5069835;28;20214;-48
2021/09/05 09:58:47;;;;;;;18.92;13.02;;;14.80;99.90;;;;;;5069649;28;20086;-48
2021/09/05 10:01:15;;;;;;;17.55;13.00;;;14.80;99.90;;;;;;5055264;28;20028;-49
2021/09/05 10:03:43;;;;;;;15.70;10.90;;;14.80;99.90;;;;;;5066164;28;20020;-46
2021/09/05 10:06:10;;;;;;;19.40;12.82;;;14.90;99.90;;;;;;5069992;28;20031;-47
2021/09/05 10:08:42;;;;;;;20.20;12.45;;;14.90;99.90;;;;;;5069742;28;20016;-46
2021/09/05 10:11:19;;;;;;;14.25;10.68;;;14.90;99.90;;;;;;5069961;28;20040;-46
2021/09/05 10:13:47;;;;;;;15.43;11.52;;;15.00;99.90;;;;;;5069798;28;20175;-46
2021/09/05 10:16:12;;;;;;;18.02;11.75;;;15.00;99.90;;;;;;5050621;28;20032;-49
2021/09/05 10:18:44;;;;;;;19.00;12.75;;;15.10;99.90;;;;;;5064780;28;20352;-47
2021/09/05 10:21:13;;;;;;;17.95;12.80;;;15.10;99.90;;;;;;5060006;28;20112;-49
2021/09/05 10:23:44;;;;;;;18.85;12.90;;;15.10;99.90;;;;;;5065467;28;20368;-46
2021/09/05 10:26:12;;;;;;;20.30;13.25;;;15.10;99.90;;;;;;5069641;28;20429;-53
2021/09/05 10:28:40;;;;;;;19.63;12.50;;;15.10;99.90;;;;;;5054288;28;20021;-46
2021/09/05 10:31:07;;;;;;;22.25;12.57;;;15.10;99.90;;;;;;5069507;28;20056;-46
2021/09/05 10:33:42;;;;;;;17.42;13.10;;;15.10;99.90;;;;;;5069283;28;20025;-47
2021/09/05 10:36:18;;;;;;;19.45;13.07;;;15.20;99.90;;;;;;5069499;28;20033;-47
2021/09/05 10:38:45;;;;;;;17.63;11.77;;;15.30;99.90;;;;;;5052305;28;20024;-47
2021/09/05 10:41:19;;;;;;;18.92;12.70;;;15.50;99.90;;;;;;5067598;28;20029;-47
2021/09/05 10:43:48;;;;;;;18.50;12.90;;;15.50;99.90;;;;;;5068955;28;20475;-48
2021/09/05 10:46:28;;;;;;;17.08;12.27;;;15.50;99.90;;;;;;5051061;28;20055;-46
2021/09/05 10:49:01;;;;;;;21.10;14.27;;;15.60;99.90;;;;;;5065754;28;20414;-46
2021/09/05 10:51:30;;;;;;;19.30;14.30;;;15.70;99.90;;;;;;5069034;28;20024;-47
2021/09/05 10:54:21;;;;;;;17.20;12.18;;;15.70;99.90;;;;;;5068970;28;20032;-47
2021/09/05 10:56:47;;;;;;;17.83;12.77;;;15.70;99.90;;;;;;5061526;28;20041;-47
2021/09/05 10:59:23;;;;;;;19.80;13.23;;;15.70;99.90;;;;;;5069252;28;20039;-47
2021/09/05 11:01:49;;;;;;;16.08;11.57;;;15.70;99.90;;;;;;5068846;28;20397;-47
2021/09/05 11:04:15;;;;;;;17.08;11.30;;;15.80;99.90;;;;;;5068980;28;20025;-46
2021/09/05 11:06:44;;;;;;;18.40;12.85;;;15.80;99.90;;;;;;5068374;28;20027;-48
2021/09/05 11:09:19;;;;;;;18.85;12.32;;;15.90;99.90;;;;;;5069053;28;20029;-47
2021/09/05 11:12:14;;;;;;;15.63;11.82;;;15.90;99.90;;;;;;5067418;28;20024;-46
2021/09/05 11:17:21;;;;;;;19.58;12.55;;;16.00;99.90;;;;;;5048896;28;20082;-46
2021/09/05 11:19:49;;;;;;;19.00;13.40;;;16.00;99.90;;;;;;5042878;28;20459;-47
2021/09/05 11:22:25;;;;;;;18.83;12.90;;;16.00;99.90;;;;;;5062683;28;20466;-47
2021/09/05 11:25:11;;;;;;;19.50;12.82;;;16.00;99.90;;;;;;5048490;28;20035;-46
2021/09/05 11:27:39;;;;;;;18.45;12.73;;;16.00;99.90;;;;;;5051834;28;20456;-47
2021/09/05 11:30:11;;;;;;;17.70;13.07;;;16.00;99.90;;;;;;5048670;28;20031;-46
2021/09/05 11:32:38;;;;;;;19.52;13.65;;;16.00;99.90;;;;;;5052447;28;20432;-47
2021/09/05 11:35:04;;;;;;;15.65;12.25;;;16.00;99.90;;;;;;5068310;28;20032;-47
2021/09/05 11:37:32;;;;;;;18.77;13.38;;;16.00;99.90;;;;;;5067894;28;20021;-46
2021/09/05 11:40:14;;;;;;;23.50;14.10;;;16.00;99.90;;;;;;5043339;28;20021;-46
2021/09/05 11:42:52;;;;;;;17.73;12.85;;;16.00;99.90;;;;;;5060354;28;20009;-47
2021/09/05 11:45:19;;;;;;;23.20;15.43;;;16.00;99.90;;;;;;5068693;28;20044;-46
2021/09/05 11:47:45;;;;;;;22.30;15.73;;;15.90;99.90;;;;;;5067780;28;20031;-47
2021/09/05 11:50:12;;;;;;;31.38;19.27;;;16.00;99.90;;;;;;5068583;28;20024;-47
2021/09/05 11:52:39;;;;;;;36.90;19.60;;;15.90;99.90;;;;;;5068230;28;20025;-46
2021/09/05 11:55:14;;;;;;;26.77;16.85;;;15.90;99.90;;;;;;5068319;28;20123;-50
2021/09/05 11:58:02;;;;;;;23.05;16.27;;;16.00;99.90;;;;;;5067561;28;20078;-47
2021/09/05 12:00:37;;;;;;;22.92;14.60;;;15.90;99.90;;;;;;5068227;28;20430;-47
2021/09/05 12:03:05;;;;;;;25.13;16.00;;;15.90;99.90;;;;;;5067829;28;20099;-47
2021/09/05 12:05:31;;;;;;;21.42;14.77;;;15.90;99.90;;;;;;5068197;28;20108;-49
2021/09/05 12:07:57;;;;;;;19.15;14.43;;;16.00;99.90;;;;;;5067539;28;20095;-50
2021/09/05 12:10:27;;;;;;;20.02;13.95;;;16.00;99.90;;;;;;5056188;28;20454;-48
2021/09/05 12:13:00;;;;;;;22.33;15.20;;;16.10;99.90;;;;;;5058422;28;20032;-47
2021/09/05 12:15:29;;;;;;;21.10;14.05;;;16.00;99.90;;;;;;5056757;28;20021;-48
2021/09/05 12:17:54;;;;;;;16.60;12.23;;;16.00;99.90;;;;;;5059070;28;20027;-49
2021/09/05 12:20:22;;;;;;;17.48;13.20;;;16.10;99.90;;;;;;5067951;28;20028;-48
2021/09/05 12:22:49;;;;;;;20.25;14.98;;;16.10;99.90;;;;;;5068620;28;20028;-48
2021/09/05 12:25:20;;;;;;;23.00;15.93;;;16.10;99.90;;;;;;5068264;28;20382;-48
2021/09/05 12:28:08;;;;;;;23.02;15.50;;;16.00;99.90;;;;;;5060336;28;20036;-48
2021/09/05 12:30:38;;;;;;;27.60;17.67;;;16.10;99.90;;;;;;5059884;28;20016;-48
2021/09/05 12:33:18;;;;;;;22.63;16.30;;;16.10;99.90;;;;;;5068346;28;20111;-48
2021/09/05 12:35:46;;;;;;;21.75;15.90;;;16.10;99.90;;;;;;5054300;28;20067;-50
2021/09/05 12:38:31;;;;;;;23.38;15.05;;;16.10;99.90;;;;;;5067438;28;20107;-47